Meteo Giornale » Osservazioni meteo Italia » Palermo-Punta Raisi

ore: 14:50 - Osservazioni Meteo Palermo-Punta Raisi
Lat. 38° 11' N Lon. 13° 6' E Alt. 21 metri s.l.m.

sereno Europe/Rome

33 °C

Sereno

Temp. 24 Ore

25 °C

33 °C

Est/Nord-Est

18.5 Km/h

Dew point 16 °C

Umidità 36 %

Visibilità  10 Km

Il sole sorge alle ore 06:03

Il sole tramonta alle ore 20:25

Data e Ora Cielo e Fenomeni T °C DP °C Um. % Pres. hPa Vis. km Vento km/h
Oggi h: 14:50 sereno Sereno 33 16 36 1013 10 E/NE 18.5
Oggi h: 14:20 sereno Sereno 32 17 40 1013 10 E/NE 18.5
Oggi h: 13:50 sereno Sereno 31 21 55 1014 10 NE 18.5
Oggi h: 13:20 sereno Sereno 31 17 43 1014 10 NE 18.5
Oggi h: 12:50 sereno Sereno 29 18 51 1014 10 N/NE 16.7
Oggi h: 12:20 sereno Sereno 29 23 70 1013 10 NE 16.7
Oggi h: 11:50 sereno Sereno 29 22 66 1013 10 N/NE 13
Oggi h: 11:20 sereno Sereno 29 22 66 1013 10 NE 16.7
Oggi h: 10:50 sereno Sereno 28 22 69 1013 10 N/NE 9.3
Oggi h: 10:20 sereno Sereno 28 21 65 1013 10 N 9.3
Oggi h: 09:50 sereno Sereno 28 21 65 1014 10 N/NE 7.4
Oggi h: 09:20 sereno Sereno 28 20 61 1014 10 N/NE 9.3
Oggi h: 08:50 sereno Sereno 27 19 61 1013 10 N 5.5
Oggi h: 08:20 sereno Sereno 28 19 58 1013 10 N 3.7
Oggi h: 07:50 sereno Sereno 27 16 50 1013 10 N 3.7
Oggi h: 07:20 sereno Sereno 26 18 61 1013 10 N 7.4
Oggi h: 06:50 sereno Sereno 27 12 39 1012 10 S 9.3
Oggi h: 06:20 sereno Sereno 25 14 50 1012 10 S/SE 9.3
Oggi h: 05:50 sereno Sereno 26 14 47 1012 10 S/SO 20.3
Oggi h: 05:20 sereno Sereno 26 15 50 1012 10 SO 22.2
Oggi h: 04:50 sereno Sereno 26 16 54 1012 10 N 3.7
Oggi h: 04:20 sereno Sereno 25 17 61 1012 10 N 5.5
Oggi h: 03:50 sereno Sereno 26 18 61 1012 10 N 5.5
Oggi h: 03:20 sereno Sereno 26 14 47 1012 10 N 3.7
Oggi h: 02:50 sereno Sereno 26 16 54 1012 10 N 3.7
Oggi h: 02:20 sereno Sereno 25 15 53 1012 10 N 5.5
Oggi h: 01:50 sereno Sereno 27 16 50 1012 10 E 7.4
Oggi h: 01:20 sereno Sereno 25 17 61 1012 10 E/SE 9.3
Oggi h: 00:50 poco_nuvoloso Poco Nuvoloso 26 16 54 1013 10 SO 7.4
Oggi h: 00:20 poco_nuvoloso Poco Nuvoloso 26 18 61 1013 10 N 3.7
Ieri h: 23:50 sereno Sereno 25 20 73 1013 10 N 3.7
Ieri h: 23:20 sereno Sereno 26 20 69 1013 10 N 3.7
Ieri h: 22:50 sereno Sereno 27 22 74 1013 10 S/SO 14.8
Ieri h: 22:20 sereno Sereno 27 21 69 1014 10 N 5.5
Ieri h: 21:50 sereno Sereno 27 22 74 1014 10 SO 14.8
Ieri h: 21:20 sereno Sereno 28 23 74 1013 10 O/SO 18.5
Ieri h: 20:50 sereno Sereno 29 18 51 1013 10 E/NE 20.3
Ieri h: 20:20 sereno Sereno 29 19 54 1014 10 E/NE 22.2
Ieri h: 19:50 sereno Sereno 29 20 58 1014 10 E/NE 22.2
Ieri h: 19:20 sereno Sereno 29 20 58 1013 10 E/NE 25.9
Ieri h: 18:50 sereno Sereno 30 20 55 1013 10 E/NE 24
Ieri h: 18:20 sereno Sereno 31 19 48 1013 10 E/NE 25.9
Ieri h: 17:50 sereno Sereno 31 19 48 1013 10 NE 24
Ieri h: 16:50 sereno Sereno 32 18 43 1013 10 NE 25.9
Ieri h: 16:20 sereno Sereno 32 21 52 1013 10 NE 24
Ieri h: 15:50 sereno Sereno 32 20 49 1013 10 NE 24